Kapaau, Hawaii
Current Conditions -  °F | °C
As of 8:56 AM on Tuesday 21 Oct 2014 (Local Time) from PHSF Reporting Station
Clear Clear  
Wind Chill: 66°   Ceiling: Unl
Heat Index: 66°   Visibility: 10mi
Dew Point: 41°   Wind: 14mph
Humidity: 39%   Direction: 150°SSE
Pressure: 30.37"   Gusts: 23mph
Location:  20.22°N, 155.79°W
Report Text: PHSF 211856Z AUTO 15012G20KT 10SM CLR 19/05 A3037 RMK AO2 SLP159 T01900048 $
Loading
Personal Weather Stations






























Interactive Weather Map
Tropical Storm Tracking
New forecast layout! Learn more

10-Day Weather Forecast

Advertisements
Track Severe Weather on mobile